Time;durP1;ratioP1;P1;durP2;ratioP2;P2;SDS_P1;SDS_P2;PMS_P1;PMS_P2;Temp;Humidity;BMP_temperature;BMP_pressure;BME280_temperature;BME280_humidity;BME280_pressure;Samples;Min_cycle;Max_cycle;Signal;HPM_P1;HPM_P2
2021/12/06 00:05:39;;;;;;;10.57;9.03;;;;;;;;;;12554127;28;20052;-74
2021/12/06 00:11:41;;;;;;;7.70;6.90;;;;;;;;;;12553770;28;20033;-74
2021/12/06 00:17:42;;;;;;;5.80;4.60;;;;;;;;;;12553775;28;20414;-74
2021/12/06 00:23:44;;;;;;;4.47;3.85;;;;;;;;;;12553319;28;20048;-74
2021/12/06 00:29:47;;;;;;;3.17;2.95;;;;;;;;;;12551943;28;20033;-74
2021/12/06 00:35:49;;;;;;;2.90;2.63;;;;;;;;;;12551581;28;20041;-74
2021/12/06 00:41:50;;;;;;;3.22;2.95;;;;;;;;;;12551214;28;20033;-74
2021/12/06 00:47:52;;;;;;;2.58;2.38;;;;;;;;;;12552272;28;20044;-74
2021/12/06 00:53:54;;;;;;;2.25;2.05;;;;;;;;;;12552681;28;20052;-75
2021/12/06 00:59:56;;;;;;;3.20;2.90;;;;;;;;;;12533965;28;20536;-74
2021/12/06 01:05:57;;;;;;;3.17;2.70;;;;;;;;;;12550214;28;20056;-74
2021/12/06 01:11:59;;;;;;;2.10;2.00;;;;;;;;;;12549389;28;20025;-74
2021/12/06 01:18:02;;;;;;;1.73;1.58;;;;;;;;;;12549677;28;20033;-74
2021/12/06 01:24:07;;;;;;;2.25;2.05;;;;;;;;;;12549629;28;20074;-74
2021/12/06 01:43:07;;;;;;;2.10;1.90;;;;;;;;;;12548434;28;20529;-74
2021/12/06 01:49:10;;;;;;;1.95;1.83;;;;;;;;;;12548282;28;20029;-74
2021/12/06 01:55:13;;;;;;;1.80;1.70;;;;;;;;;;12547836;28;20402;-74
2021/12/06 02:01:15;;;;;;;2.08;1.60;;;;;;;;;;12547595;28;20040;-74
2021/12/06 02:07:19;;;;;;;2.33;2.13;;;;;;;;;;12547099;28;20049;-74
2021/12/06 02:13:24;;;;;;;1.88;1.67;;;;;;;;;;12546983;28;20045;-74
2021/12/06 02:19:32;;;;;;;2.07;1.93;;;;;;;;;;12547964;28;20478;-74
2021/12/06 02:25:34;;;;;;;2.28;2.08;;;;;;;;;;12545798;28;20768;-74
2021/12/06 02:31:36;;;;;;;2.70;2.50;;;;;;;;;;12529712;28;20493;-74
2021/12/06 02:37:39;;;;;;;2.13;1.92;;;;;;;;;;12546679;28;20048;-74
2021/12/06 02:43:42;;;;;;;1.75;1.65;;;;;;;;;;12545652;28;20486;-74
2021/12/06 02:49:45;;;;;;;1.60;1.50;;;;;;;;;;12545292;28;20033;-74
2021/12/06 02:55:52;;;;;;;1.80;1.70;;;;;;;;;;12528329;28;20037;-74
2021/12/06 03:01:57;;;;;;;2.83;2.63;;;;;;;;;;12528079;28;20047;-73
2021/12/06 03:08:02;;;;;;;2.85;2.65;;;;;;;;;;12544926;28;20061;-74
2021/12/06 03:14:05;;;;;;;3.72;3.42;;;;;;;;;;12544290;28;20060;-74
2021/12/06 03:20:11;;;;;;;3.28;3.00;;;;;;;;;;12543691;28;20033;-74
2021/12/06 03:26:14;;;;;;;2.65;2.45;;;;;;;;;;12545360;28;20052;-74
2021/12/06 03:32:16;;;;;;;2.78;2.58;;;;;;;;;;12543292;28;20397;-74
2021/12/06 03:38:19;;;;;;;2.60;2.40;;;;;;;;;;12526510;28;20041;-74
2021/12/06 03:44:22;;;;;;;;;;;;;;;;;;12527706;28;20048;-74
2021/12/06 03:50:23;;;;;;;3.00;2.70;;;;;;;;;;12542735;28;19909;-74
2021/12/06 03:56:27;;;;;;;3.38;3.08;;;;;;;;;;12542701;28;20045;-74
2021/12/06 04:02:30;;;;;;;3.37;3.07;;;;;;;;;;12542604;28;20021;-74
2021/12/06 04:08:33;;;;;;;4.72;4.32;;;;;;;;;;12544378;28;20132;-74
2021/12/06 04:14:37;;;;;;;4.05;3.30;;;;;;;;;;12526020;28;20071;-74
2021/12/06 04:20:39;;;;;;;3.20;3.00;;;;;;;;;;12542440;28;20394;-74
2021/12/06 04:26:41;;;;;;;3.63;3.30;;;;;;;;;;12525482;28;20033;-74
2021/12/06 04:32:43;;;;;;;3.97;3.38;;;;;;;;;;12542306;28;20382;-74
2021/12/06 04:38:45;;;;;;;3.63;3.33;;;;;;;;;;12526257;28;20052;-74
2021/12/06 04:44:48;;;;;;;3.88;3.58;;;;;;;;;;12543330;28;20036;-74
2021/12/06 04:50:51;;;;;;;4.40;4.00;;;;;;;;;;12534731;28;20604;-74
2021/12/06 04:56:57;;;;;;;3.38;3.00;;;;;;;;;;12550622;28;20064;-74
2021/12/06 05:03:00;;;;;;;3.20;2.80;;;;;;;;;;12550429;28;20033;-73
2021/12/06 05:09:06;;;;;;;3.50;3.20;;;;;;;;;;12551333;28;20398;-74
2021/12/06 05:15:09;;;;;;;4.20;3.38;;;;;;;;;;12549674;28;20052;-74
2021/12/06 05:21:12;;;;;;;3.40;3.10;;;;;;;;;;12549426;28;20041;-74
2021/12/06 05:27:14;;;;;;;2.40;2.20;;;;;;;;;;12549170;28;20033;-74
2021/12/06 05:33:28;;;;;;;2.78;2.58;;;;;;;;;;12548640;28;20043;-74
2021/12/06 05:39:30;;;;;;;5.03;4.63;;;;;;;;;;12550026;28;20048;-74
2021/12/06 05:45:33;;;;;;;4.78;4.38;;;;;;;;;;12549920;28;20035;-74
2021/12/06 05:51:35;;;;;;;4.35;4.03;;;;;;;;;;12548086;28;20095;-74
2021/12/06 05:57:37;;;;;;;3.80;3.25;;;;;;;;;;12547868;28;20052;-74
2021/12/06 06:03:39;;;;;;;3.22;2.92;;;;;;;;;;12548515;28;20063;-74
2021/12/06 06:09:40;;;;;;;4.03;3.63;;;;;;;;;;12547409;28;20029;-74
2021/12/06 06:15:42;;;;;;;5.85;5.35;;;;;;;;;;12547819;28;20056;-74
2021/12/06 06:21:44;;;;;;;5.45;4.93;;;;;;;;;;12547902;28;20036;-74
2021/12/06 06:27:46;;;;;;;5.67;5.20;;;;;;;;;;12531098;28;20229;-74
2021/12/06 06:33:48;;;;;;;6.45;5.93;;;;;;;;;;12511967;28;20037;-75
2021/12/06 06:39:49;;;;;;;8.55;7.75;;;;;;;;;;12511808;28;20391;-73
2021/12/06 06:45:51;;;;;;;7.57;6.78;;;;;;;;;;12513385;28;20044;-75
2021/12/06 06:51:53;;;;;;;5.60;5.10;;;;;;;;;;12513413;28;20048;-73
2021/12/06 06:57:54;;;;;;;22.38;16.45;;;;;;;;;;12526072;28;20044;-73
2021/12/06 07:03:56;;;;;;;7.57;6.25;;;;;;;;;;12523694;28;20056;-73
2021/12/06 07:09:58;;;;;;;14.98;13.48;;;;;;;;;;12522702;28;20033;-73
2021/12/06 07:16:03;;;;;;;12.35;11.05;;;;;;;;;;12513731;28;20036;-73
2021/12/06 07:22:05;;;;;;;9.25;8.43;;;;;;;;;;12525263;28;20501;-73
2021/12/06 07:28:07;;;;;;;10.77;9.77;;;;;;;;;;12524485;28;20413;-74
2021/12/06 07:34:09;;;;;;;10.65;9.75;;;;;;;;;;12511296;28;20068;-73
2021/12/06 07:40:12;;;;;;;8.23;7.53;;;;;;;;;;12505843;28;20032;-73
2021/12/06 07:46:15;;;;;;;8.13;7.35;;;;;;;;;;12508120;28;20471;-73
2021/12/06 07:52:16;;;;;;;;;;;;;;;;;;12511525;28;20039;-73
2021/12/06 07:58:18;;;;;;;6.78;5.35;;;;;;;;;;12513285;28;19923;-74
2021/12/06 08:04:20;;;;;;;5.10;4.63;;;;;;;;;;12545817;28;20045;-73
2021/12/06 08:10:22;;;;;;;5.50;5.00;;;;;;;;;;12513805;28;20068;-74
2021/12/06 08:16:26;;;;;;;5.13;4.60;;;;;;;;;;12506434;28;20478;-74
2021/12/06 08:22:28;;;;;;;10.73;7.63;;;;;;;;;;12506972;28;20032;-73
2021/12/06 08:28:31;;;;;;;21.05;12.80;;;;;;;;;;12528549;28;20040;-74
2021/12/06 08:34:33;;;;;;;16.67;10.93;;;;;;;;;;12506769;28;20502;-73
2021/12/06 08:40:38;;;;;;;9.43;6.95;;;;;;;;;;12508073;28;20040;-72
2021/12/06 08:46:50;;;;;;;7.03;5.70;;;;;;;;;;12510853;28;20471;-73
2021/12/06 08:53:08;;;;;;;6.82;5.53;;;;;;;;;;12524065;28;20036;-72
2021/12/06 08:59:20;;;;;;;6.35;5.00;;;;;;;;;;12508478;28;20396;-74
2021/12/06 09:05:24;;;;;;;5.68;4.05;;;;;;;;;;12511841;28;20056;-74
2021/12/06 09:11:26;;;;;;;4.75;4.10;;;;;;;;;;12514442;28;20038;-74
2021/12/06 09:17:28;;;;;;;6.25;3.90;;;;;;;;;;12515381;28;20041;-74
2021/12/06 09:23:30;;;;;;;3.95;3.22;;;;;;;;;;12516918;28;20042;-75
2021/12/06 09:29:36;;;;;;;3.20;2.90;;;;;;;;;;12515551;28;20040;-75
2021/12/06 09:35:40;;;;;;;3.92;3.50;;;;;;;;;;12509862;28;20041;-74
2021/12/06 09:41:42;;;;;;;3.22;2.90;;;;;;;;;;12509277;28;20041;-74
2021/12/06 09:47:50;;;;;;;2.67;2.47;;;;;;;;;;12488379;28;20410;-75
2021/12/06 09:53:53;;;;;;;2.63;2.30;;;;;;;;;;12512179;28;20033;-74
2021/12/06 09:59:55;;;;;;;5.07;2.97;;;;;;;;;;12509729;28;20037;-74
2021/12/06 10:06:02;;;;;;;8.50;5.70;;;;;;;;;;12510100;28;20045;-74
2021/12/06 10:12:05;;;;;;;4.78;2.70;;;;;;;;;;12512144;28;20477;-74
2021/12/06 10:18:09;;;;;;;2.42;1.58;;;;;;;;;;12516011;28;20052;-73
2021/12/06 10:24:12;;;;;;;1.67;1.48;;;;;;;;;;12514944;28;20493;-74
2021/12/06 10:30:14;;;;;;;3.25;1.83;;;;;;;;;;12522574;28;20048;-74
2021/12/06 10:36:18;;;;;;;3.75;2.58;;;;;;;;;;12519174;28;20060;-74
2021/12/06 10:42:34;;;;;;;1.73;1.63;;;;;;;;;;12511654;28;20391;-74
2021/12/06 10:48:38;;;;;;;2.72;1.90;;;;;;;;;;12506160;28;20040;-74
2021/12/06 10:54:42;;;;;;;1.60;1.15;;;;;;;;;;12515649;28;20482;-74
2021/12/06 11:00:45;;;;;;;1.08;0.98;;;;;;;;;;12514315;28;20041;-74
2021/12/06 11:06:49;;;;;;;1.83;1.50;;;;;;;;;;12498139;28;20068;-75
2021/12/06 11:13:10;;;;;;;1.48;1.30;;;;;;;;;;12502554;28;20430;-74
2021/12/06 11:19:13;;;;;;;1.00;0.90;;;;;;;;;;12506950;28;20036;-74
2021/12/06 11:25:15;;;;;;;;;;;;;;;;;;12508416;28;20060;-73
2021/12/06 11:31:18;;;;;;;0.98;0.88;;;;;;;;;;12509376;28;19957;-75
2021/12/06 11:37:21;;;;;;;1.57;1.10;;;;;;;;;;12504595;28;20041;-72
2021/12/06 11:43:23;;;;;;;2.22;1.88;;;;;;;;;;12503212;28;20048;-74
2021/12/06 11:49:31;;;;;;;2.47;1.75;;;;;;;;;;12482498;28;20033;-74
2021/12/06 11:55:44;;;;;;;1.95;1.73;;;;;;;;;;12510484;28;20036;-73
2021/12/06 12:01:47;;;;;;;2.17;1.90;;;;;;;;;;12506775;28;20386;-74
2021/12/06 12:07:56;;;;;;;1.67;1.55;;;;;;;;;;12506183;28;20061;-73
2021/12/06 12:13:58;;;;;;;1.70;1.50;;;;;;;;;;12511012;28;20036;-72
2021/12/06 12:20:01;;;;;;;1.60;1.30;;;;;;;;;;12510965;28;20030;-73
2021/12/06 12:26:09;;;;;;;2.00;1.80;;;;;;;;;;12521393;28;20017;-72
2021/12/06 12:32:10;;;;;;;1.00;0.80;;;;;;;;;;12535631;28;20355;-72
2021/12/06 12:38:13;;;;;;;0.85;0.73;;;;;;;;;;12515002;28;20049;-73
2021/12/06 12:44:15;;;;;;;0.60;0.50;;;;;;;;;;12523556;28;20033;-73
2021/12/06 12:50:18;;;;;;;0.47;0.47;;;;;;;;;;12517393;28;20037;-73
2021/12/06 12:56:24;;;;;;;1.55;0.80;;;;;;;;;;12504031;28;20041;-73
2021/12/06 13:02:30;;;;;;;1.10;0.80;;;;;;;;;;12511075;28;20032;-73
2021/12/06 13:08:36;;;;;;;0.50;0.50;;;;;;;;;;12521172;28;20038;-73
2021/12/06 13:14:56;;;;;;;2.70;1.80;;;;;;;;;;12502831;28;20055;-74
2021/12/06 13:21:01;;;;;;;2.30;2.10;;;;;;;;;;12527277;28;20034;-73
2021/12/06 13:27:08;;;;;;;1.20;1.10;;;;;;;;;;12531842;28;20487;-73
2021/12/06 13:33:11;;;;;;;2.30;2.10;;;;;;;;;;12535640;28;20592;-73
2021/12/06 13:39:13;;;;;;;;;;;;;;;;;;12515768;28;20061;-74
2021/12/06 13:45:18;;;;;;;3.92;3.25;;;;;;;;;;12490345;28;19909;-74
2021/12/06 13:51:26;;;;;;;1.13;1.00;;;;;;;;;;12500110;28;20052;-74
2021/12/06 13:57:29;;;;;;;1.17;1.08;;;;;;;;;;12499831;28;20038;-73
2021/12/06 14:03:40;;;;;;;1.52;1.30;;;;;;;;;;12498330;28;20056;-73
2021/12/06 14:09:43;;;;;;;1.85;1.13;;;;;;;;;;12503229;28;20033;-73
2021/12/06 14:21:47;;;;;;;1.98;1.15;;;;;;;;;;12497105;28;20042;-74
2021/12/06 14:27:49;;;;;;;1.95;1.00;;;;;;;;;;12498487;28;20060;-73
2021/12/06 14:33:51;;;;;;;0.93;0.85;;;;;;;;;;12497716;28;20033;-73
2021/12/06 14:39:57;;;;;;;1.15;0.90;;;;;;;;;;12496717;28;20046;-73
2021/12/06 14:46:04;;;;;;;1.60;1.02;;;;;;;;;;12496682;28;20033;-74
2021/12/06 14:52:12;;;;;;;1.42;1.00;;;;;;;;;;12495919;28;20044;-74
2021/12/06 14:58:15;;;;;;;0.90;0.90;;;;;;;;;;12495668;28;20403;-74
2021/12/06 15:04:26;;;;;;;0.88;0.82;;;;;;;;;;12496735;28;20085;-74
2021/12/06 15:10:28;;;;;;;1.17;1.08;;;;;;;;;;12495480;28;20045;-74
2021/12/06 15:16:30;;;;;;;1.67;1.58;;;;;;;;;;12496043;28;20049;-73
2021/12/06 15:22:32;;;;;;;2.13;1.63;;;;;;;;;;12478608;28;20466;-73
2021/12/06 15:28:36;;;;;;;2.38;2.17;;;;;;;;;;12495179;28;20049;-72
2021/12/06 15:34:40;;;;;;;2.05;1.90;;;;;;;;;;12478314;28;20068;-72
2021/12/06 15:40:42;;;;;;;2.08;1.90;;;;;;;;;;12493984;28;20042;-73
2021/12/06 15:46:46;;;;;;;2.20;2.00;;;;;;;;;;12477327;28;20041;-73
2021/12/06 15:52:48;;;;;;;2.10;1.73;;;;;;;;;;12494675;28;20049;-73
2021/12/06 15:58:54;;;;;;;1.25;1.15;;;;;;;;;;12495118;28;20037;-73
2021/12/06 16:05:06;;;;;;;2.53;1.50;;;;;;;;;;12476944;28;20061;-73
2021/12/06 16:11:09;;;;;;;1.75;1.65;;;;;;;;;;12493259;28;20033;-74
2021/12/06 16:17:10;;;;;;;;;;;;;;;;;;12494349;28;20060;-74
2021/12/06 16:23:16;;;;;;;1.92;1.50;;;;;;;;;;12493832;28;19912;-75
2021/12/06 16:29:19;;;;;;;2.10;1.90;;;;;;;;;;12492746;28;20049;-74
2021/12/06 16:35:21;;;;;;;5.78;2.67;;;;;;;;;;12494032;28;20060;-73
2021/12/06 16:41:28;;;;;;;3.72;2.03;;;;;;;;;;12496313;28;20037;-73
2021/12/06 16:47:31;;;;;;;3.08;2.22;;;;;;;;;;12501455;28;20044;-74
2021/12/06 16:53:33;;;;;;;9.70;8.23;;;;;;;;;;12507656;28;20033;-74
2021/12/06 16:59:37;;;;;;;5.82;5.05;;;;;;;;;;12502366;28;20049;-74
2021/12/06 17:05:41;;;;;;;4.85;4.15;;;;;;;;;;12502254;28;20049;-75
2021/12/06 17:11:50;;;;;;;5.63;4.82;;;;;;;;;;12500145;28;20037;-75
2021/12/06 17:17:54;;;;;;;6.22;4.88;;;;;;;;;;12484196;28;20038;-74
2021/12/06 17:23:56;;;;;;;6.43;5.20;;;;;;;;;;12499875;28;20045;-74
2021/12/06 17:29:58;;;;;;;10.98;8.52;;;;;;;;;;12500015;28;20033;-74
2021/12/06 17:36:02;;;;;;;7.70;6.63;;;;;;;;;;12501543;28;20049;-74
2021/12/06 17:42:04;;;;;;;9.23;7.13;;;;;;;;;;12501156;28;20034;-74
2021/12/06 17:48:06;;;;;;;15.18;10.57;;;;;;;;;;12498727;28;20037;-74
2021/12/06 17:54:08;;;;;;;11.52;9.27;;;;;;;;;;12499439;28;20034;-75
2021/12/06 18:00:11;;;;;;;7.55;6.35;;;;;;;;;;12499469;28;20384;-73
2021/12/06 18:06:13;;;;;;;7.85;7.00;;;;;;;;;;12498369;28;20064;-73
2021/12/06 18:12:15;;;;;;;9.48;8.57;;;;;;;;;;12498814;28;20049;-73
2021/12/06 18:18:17;;;;;;;5.63;5.13;;;;;;;;;;12496985;28;20507;-74
2021/12/06 18:24:19;;;;;;;7.32;6.47;;;;;;;;;;12498066;28;20497;-73
2021/12/06 18:30:21;;;;;;;6.72;6.03;;;;;;;;;;12496953;28;20483;-73
2021/12/06 18:36:23;;;;;;;8.50;6.43;;;;;;;;;;12497101;28;20045;-74
2021/12/06 18:42:28;;;;;;;7.53;6.82;;;;;;;;;;12497107;28;20033;-74
2021/12/06 18:48:32;;;;;;;8.95;8.07;;;;;;;;;;12479250;28;20042;-74
2021/12/06 18:54:35;;;;;;;9.50;7.85;;;;;;;;;;12496728;28;20044;-74
2021/12/06 19:00:37;;;;;;;10.57;9.18;;;;;;;;;;12479286;28;20044;-74
2021/12/06 19:06:39;;;;;;;12.82;11.00;;;;;;;;;;12494815;28;20060;-74
2021/12/06 19:12:41;;;;;;;13.05;11.02;;;;;;;;;;12496656;28;20056;-74
2021/12/06 19:18:43;;;;;;;13.35;11.98;;;;;;;;;;12495911;28;20386;-75
2021/12/06 19:24:45;;;;;;;14.57;12.20;;;;;;;;;;12495544;28;20935;-73
2021/12/06 19:30:48;;;;;;;12.75;11.35;;;;;;;;;;12494452;28;20489;-73
2021/12/06 19:36:50;;;;;;;16.63;14.88;;;;;;;;;;12496294;28;20386;-73
2021/12/06 19:42:52;;;;;;;18.52;16.63;;;;;;;;;;12493732;28;20033;-73
2021/12/06 19:48:54;;;;;;;20.15;15.50;;;;;;;;;;12476873;28;20048;-74
2021/12/06 19:54:55;;;;;;;16.17;14.50;;;;;;;;;;12494776;28;20517;-74
2021/12/06 20:00:58;;;;;;;15.63;13.25;;;;;;;;;;12476749;28;20049;-74
2021/12/06 20:07:00;;;;;;;;;;;;;;;;;;12495579;28;20414;-73
2021/12/06 20:13:02;;;;;;;15.77;13.73;;;;;;;;;;12494838;28;19920;-73
2021/12/06 20:19:04;;;;;;;19.20;15.90;;;;;;;;;;12499833;28;20041;-73
2021/12/06 20:25:06;;;;;;;18.53;15.77;;;;;;;;;;12502722;28;20041;-73
2021/12/06 20:31:08;;;;;;;16.83;15.18;;;;;;;;;;12503858;28;20036;-73
2021/12/06 20:37:10;;;;;;;17.73;15.82;;;;;;;;;;12486356;28;20049;-74
2021/12/06 20:43:12;;;;;;;18.02;16.15;;;;;;;;;;12503033;28;20060;-74
2021/12/06 20:49:14;;;;;;;16.17;14.53;;;;;;;;;;12501867;28;20029;-74
2021/12/06 20:55:16;;;;;;;15.90;14.32;;;;;;;;;;12501886;28;20068;-73
2021/12/06 21:01:18;;;;;;;17.20;14.65;;;;;;;;;;12501224;28;20406;-74
2021/12/06 21:07:19;;;;;;;13.63;12.23;;;;;;;;;;12504069;28;20068;-74
2021/12/06 21:19:23;;;;;;;31.67;28.17;;;;;;;;;;12501695;28;20037;-73
2021/12/06 21:25:25;;;;;;;25.67;22.92;;;;;;;;;;12501438;28;20406;-73
2021/12/06 21:31:26;;;;;;;28.15;24.00;;;;;;;;;;12500932;28;20034;-73
2021/12/06 21:37:28;;;;;;;22.85;20.50;;;;;;;;;;12500399;28;20045;-73
2021/12/06 21:43:30;;;;;;;24.95;22.17;;;;;;;;;;12502335;28;20052;-73
2021/12/06 21:49:32;;;;;;;15.73;14.02;;;;;;;;;;12506173;28;20044;-73
2021/12/06 21:55:35;;;;;;;18.17;16.10;;;;;;;;;;12501104;28;20048;-73
2021/12/06 22:01:37;;;;;;;28.38;23.63;;;;;;;;;;12498997;28;20041;-73
2021/12/06 22:07:38;;;;;;;18.15;16.25;;;;;;;;;;12500106;28;20064;-73
2021/12/06 22:13:40;;;;;;;23.55;20.95;;;;;;;;;;12498768;28;20048;-74
2021/12/06 22:19:44;;;;;;;19.30;17.20;;;;;;;;;;12497778;28;20080;-73
2021/12/06 22:25:46;;;;;;;22.13;19.50;;;;;;;;;;12499000;28;20371;-73
2021/12/06 22:31:47;;;;;;;15.27;13.65;;;;;;;;;;12497000;28;20030;-74
2021/12/06 22:37:50;;;;;;;16.10;14.55;;;;;;;;;;12495844;28;20292;-73
2021/12/06 22:43:51;;;;;;;16.13;14.52;;;;;;;;;;12496938;28;20029;-74
2021/12/06 22:49:53;;;;;;;12.38;11.18;;;;;;;;;;12498156;28;20034;-74
2021/12/06 22:55:55;;;;;;;12.60;11.40;;;;;;;;;;12497108;28;20045;-74
2021/12/06 23:01:56;;;;;;;9.73;8.73;;;;;;;;;;12497208;28;20037;-74
2021/12/06 23:07:59;;;;;;;14.05;12.60;;;;;;;;;;12497084;28;20418;-73
2021/12/06 23:14:02;;;;;;;;;;;;;;;;;;12495799;28;20033;-73
2021/12/06 23:20:04;;;;;;;11.15;10.07;;;;;;;;;;12495433;28;19924;-74
2021/12/06 23:26:07;;;;;;;12.00;10.73;;;;;;;;;;12494930;28;20041;-73
2021/12/06 23:32:09;;;;;;;10.87;8.90;;;;;;;;;;12495683;28;20029;-73
2021/12/06 23:39:13;;;;;;;10.10;8.73;;;;;;;;;;12477839;28;20307;-73
2021/12/06 23:50:54;;;;;;;9.70;8.80;;;;;;;;;;12495069;28;20048;-73
2021/12/06 23:56:58;;;;;;;6.57;5.95;;;;;;;;;;12494831;28;20049;-73
